sensor_id;sensor_type;location;lat;lon;timestamp;pressure;altitude;pressure_sealevel;temperature;humidity
10881;BME280;5493;48.884;8.338;2022-09-03T00:00:52;99716.69;;;21.69;100.00
10881;BME280;5493;48.884;8.338;2022-09-03T00:03:25;99707.16;;;21.67;100.00
10881;BME280;5493;48.884;8.338;2022-09-03T00:05:55;99707.13;;;21.94;100.00
10881;BME280;5493;48.884;8.338;2022-09-03T00:08:30;99707.94;;;21.81;100.00
10881;BME280;5493;48.884;8.338;2022-09-03T00:11:03;99711.41;;;21.59;100.00
10881;BME280;5493;48.884;8.338;2022-09-03T00:13:34;99707.34;;;21.70;100.00
10881;BME280;5493;48.884;8.338;2022-09-03T00:16:07;99710.59;;;21.72;100.00
10881;BME280;5493;48.884;8.338;2022-09-03T00:18:40;99715.75;;;21.87;100.00
10881;BME280;5493;48.884;8.338;2022-09-03T00:21:12;99712.91;;;21.79;100.00
10881;BME280;5493;48.884;8.338;2022-09-03T00:23:43;99720.75;;;21.72;100.00
10881;BME280;5493;48.884;8.338;2022-09-03T00:26:19;99721.47;;;21.77;100.00
10881;BME280;5493;48.884;8.338;2022-09-03T00:28:55;99721.34;;;21.82;100.00
10881;BME280;5493;48.884;8.338;2022-09-03T00:31:28;99719.13;;;21.57;100.00
10881;BME280;5493;48.884;8.338;2022-09-03T00:33:59;99719.63;;;21.45;100.00
10881;BME280;5493;48.884;8.338;2022-09-03T00:36:33;99725.13;;;21.18;100.00
10881;BME280;5493;48.884;8.338;2022-09-03T00:39:01;99721.97;;;21.11;100.00
10881;BME280;5493;48.884;8.338;2022-09-03T00:41:32;99733.16;;;20.96;100.00
10881;BME280;5493;48.884;8.338;2022-09-03T00:44:18;99728.38;;;20.88;100.00
10881;BME280;5493;48.884;8.338;2022-09-03T00:46:55;99734.19;;;21.00;100.00
10881;BME280;5493;48.884;8.338;2022-09-03T00:49:31;99735.63;;;20.97;100.00
10881;BME280;5493;48.884;8.338;2022-09-03T00:52:06;99722.34;;;20.72;100.00
10881;BME280;5493;48.884;8.338;2022-09-03T00:54:42;99723.34;;;20.44;100.00
10881;BME280;5493;48.884;8.338;2022-09-03T00:57:27;99722.91;;;20.37;100.00
10881;BME280;5493;48.884;8.338;2022-09-03T01:00:03;99731.13;;;20.37;100.00
10881;BME280;5493;48.884;8.338;2022-09-03T01:02:39;99723.47;;;20.15;100.00
10881;BME280;5493;48.884;8.338;2022-09-03T01:05:20;99716.47;;;20.09;100.00
10881;BME280;5493;48.884;8.338;2022-09-03T01:07:57;99716.09;;;19.97;100.00
10881;BME280;5493;48.884;8.338;2022-09-03T01:10:30;99721.50;;;20.02;100.00
10881;BME280;5493;48.884;8.338;2022-09-03T01:13:06;99723.41;;;20.01;100.00
10881;BME280;5493;48.884;8.338;2022-09-03T01:15:44;99719.06;;;20.19;100.00
10881;BME280;5493;48.884;8.338;2022-09-03T01:18:26;99710.38;;;19.93;100.00
10881;BME280;5493;48.884;8.338;2022-09-03T01:21:11;99726.75;;;19.98;100.00
10881;BME280;5493;48.884;8.338;2022-09-03T01:23:55;99738.22;;;20.19;100.00
10881;BME280;5493;48.884;8.338;2022-09-03T01:26:49;99737.09;;;20.20;100.00
10881;BME280;5493;48.884;8.338;2022-09-03T01:29:25;99736.94;;;20.11;100.00
10881;BME280;5493;48.884;8.338;2022-09-03T01:32:03;99736.22;;;20.25;100.00
10881;BME280;5493;48.884;8.338;2022-09-03T01:34:42;99728.16;;;20.14;100.00
10881;BME280;5493;48.884;8.338;2022-09-03T01:37:17;99731.13;;;20.18;100.00
10881;BME280;5493;48.884;8.338;2022-09-03T01:39:57;99736.38;;;19.96;100.00
10881;BME280;5493;48.884;8.338;2022-09-03T01:42:32;99735.72;;;20.04;100.00
10881;BME280;5493;48.884;8.338;2022-09-03T01:45:14;99739.56;;;20.22;100.00
10881;BME280;5493;48.884;8.338;2022-09-03T01:47:55;99745.94;;;20.36;100.00
10881;BME280;5493;48.884;8.338;2022-09-03T01:50:39;99744.72;;;20.23;100.00
10881;BME280;5493;48.884;8.338;2022-09-03T01:53:15;99747.66;;;20.32;100.00
10881;BME280;5493;48.884;8.338;2022-09-03T01:55:55;99748.16;;;20.52;100.00
10881;BME280;5493;48.884;8.338;2022-09-03T01:58:28;99754.16;;;20.54;100.00
10881;BME280;5493;48.884;8.338;2022-09-03T02:01:00;99740.09;;;20.42;100.00
10881;BME280;5493;48.884;8.338;2022-09-03T02:03:33;99735.69;;;20.23;100.00
10881;BME280;5493;48.884;8.338;2022-09-03T02:06:01;99727.84;;;20.16;100.00
10881;BME280;5493;48.884;8.338;2022-09-03T02:08:31;99736.97;;;19.93;100.00
10881;BME280;5493;48.884;8.338;2022-09-03T02:10:58;99728.44;;;19.94;100.00
10881;BME280;5493;48.884;8.338;2022-09-03T02:13:29;99730.53;;;20.02;100.00
10881;BME280;5493;48.884;8.338;2022-09-03T02:16:00;99733.47;;;19.87;100.00
10881;BME280;5493;48.884;8.338;2022-09-03T02:18:30;99730.91;;;19.96;100.00
10881;BME280;5493;48.884;8.338;2022-09-03T02:20:59;99725.19;;;19.92;100.00
10881;BME280;5493;48.884;8.338;2022-09-03T02:23:26;99725.34;;;19.82;100.00
10881;BME280;5493;48.884;8.338;2022-09-03T02:25:55;99725.25;;;19.87;100.00
10881;BME280;5493;48.884;8.338;2022-09-03T02:28:22;99723.59;;;20.29;100.00
10881;BME280;5493;48.884;8.338;2022-09-03T02:30:50;99727.69;;;20.26;100.00
10881;BME280;5493;48.884;8.338;2022-09-03T02:33:18;99725.16;;;20.35;100.00
10881;BME280;5493;48.884;8.338;2022-09-03T02:35:44;99729.09;;;20.29;100.00
10881;BME280;5493;48.884;8.338;2022-09-03T02:38:13;99722.69;;;20.33;100.00
10881;BME280;5493;48.884;8.338;2022-09-03T02:40:41;99715.63;;;20.32;100.00
10881;BME280;5493;48.884;8.338;2022-09-03T02:43:12;99719.75;;;20.11;100.00
10881;BME280;5493;48.884;8.338;2022-09-03T02:45:44;99720.53;;;20.11;100.00
10881;BME280;5493;48.884;8.338;2022-09-03T02:48:13;99727.72;;;20.07;100.00
10881;BME280;5493;48.884;8.338;2022-09-03T02:50:43;99729.13;;;20.24;100.00
10881;BME280;5493;48.884;8.338;2022-09-03T02:53:09;99726.66;;;20.22;100.00
10881;BME280;5493;48.884;8.338;2022-09-03T02:55:36;99728.41;;;20.18;100.00
10881;BME280;5493;48.884;8.338;2022-09-03T02:58:02;99730.38;;;20.12;100.00
10881;BME280;5493;48.884;8.338;2022-09-03T03:00:30;99735.25;;;19.97;100.00
10881;BME280;5493;48.884;8.338;2022-09-03T03:02:57;99729.84;;;19.92;100.00
10881;BME280;5493;48.884;8.338;2022-09-03T03:05:26;99727.78;;;20.02;100.00
10881;BME280;5493;48.884;8.338;2022-09-03T03:07:56;99727.94;;;19.92;100.00
10881;BME280;5493;48.884;8.338;2022-09-03T03:10:23;99726.28;;;19.91;100.00
10881;BME280;5493;48.884;8.338;2022-09-03T03:12:49;99725.56;;;20.04;100.00
10881;BME280;5493;48.884;8.338;2022-09-03T03:15:16;99729.50;;;20.17;100.00
10881;BME280;5493;48.884;8.338;2022-09-03T03:17:43;99729.81;;;20.34;100.00
10881;BME280;5493;48.884;8.338;2022-09-03T03:20:10;99727.28;;;20.38;100.00
10881;BME280;5493;48.884;8.338;2022-09-03T03:22:36;99740.91;;;20.43;100.00
10881;BME280;5493;48.884;8.338;2022-09-03T03:25:05;99752.22;;;20.18;100.00
10881;BME280;5493;48.884;8.338;2022-09-03T03:27:32;99746.28;;;20.10;100.00
10881;BME280;5493;48.884;8.338;2022-09-03T03:29:58;99752.63;;;19.87;100.00
10881;BME280;5493;48.884;8.338;2022-09-03T03:32:25;99752.44;;;19.79;100.00
10881;BME280;5493;48.884;8.338;2022-09-03T03:34:52;99757.44;;;19.95;100.00
10881;BME280;5493;48.884;8.338;2022-09-03T03:37:18;99769.75;;;19.74;100.00
10881;BME280;5493;48.884;8.338;2022-09-03T03:39:45;99766.47;;;19.72;100.00
10881;BME280;5493;48.884;8.338;2022-09-03T03:42:12;99769.81;;;19.93;100.00
10881;BME280;5493;48.884;8.338;2022-09-03T03:44:39;99761.69;;;20.06;100.00
10881;BME280;5493;48.884;8.338;2022-09-03T03:47:06;99773.31;;;19.75;100.00
10881;BME280;5493;48.884;8.338;2022-09-03T03:49:33;99771.50;;;19.89;100.00
10881;BME280;5493;48.884;8.338;2022-09-03T03:51:59;99775.94;;;20.03;100.00
10881;BME280;5493;48.884;8.338;2022-09-03T03:54:27;99773.66;;;20.10;100.00
10881;BME280;5493;48.884;8.338;2022-09-03T03:56:53;99769.88;;;20.06;100.00
10881;BME280;5493;48.884;8.338;2022-09-03T03:59:21;99773.50;;;20.02;100.00
10881;BME280;5493;48.884;8.338;2022-09-03T04:01:48;99777.66;;;20.18;100.00
10881;BME280;5493;48.884;8.338;2022-09-03T04:04:15;99785.13;;;20.12;100.00
10881;BME280;5493;48.884;8.338;2022-09-03T04:06:42;99779.97;;;19.87;100.00
10881;BME280;5493;48.884;8.338;2022-09-03T04:09:08;99777.84;;;19.84;100.00
10881;BME280;5493;48.884;8.338;2022-09-03T04:11:35;99771.13;;;19.95;100.00
10881;BME280;5493;48.884;8.338;2022-09-03T04:14:01;99777.66;;;19.99;100.00
10881;BME280;5493;48.884;8.338;2022-09-03T04:16:29;99774.31;;;20.02;100.00
10881;BME280;5493;48.884;8.338;2022-09-03T04:18:57;99779.97;;;20.11;100.00
10881;BME280;5493;48.884;8.338;2022-09-03T04:21:26;99770.84;;;20.15;100.00
10881;BME280;5493;48.884;8.338;2022-09-03T04:23:53;99774.41;;;20.16;100.00
10881;BME280;5493;48.884;8.338;2022-09-03T04:26:22;99778.31;;;20.10;100.00
10881;BME280;5493;48.884;8.338;2022-09-03T04:28:48;99783.38;;;20.22;100.00
10881;BME280;5493;48.884;8.338;2022-09-03T04:31:16;99781.50;;;20.17;100.00
10881;BME280;5493;48.884;8.338;2022-09-03T04:33:45;99784.91;;;20.09;100.00
10881;BME280;5493;48.884;8.338;2022-09-03T04:36:12;99789.41;;;20.00;100.00
10881;BME280;5493;48.884;8.338;2022-09-03T04:38:42;99785.00;;;19.80;100.00
10881;BME280;5493;48.884;8.338;2022-09-03T04:41:11;99797.63;;;19.52;100.00
10881;BME280;5493;48.884;8.338;2022-09-03T04:43:38;99800.97;;;19.49;100.00
10881;BME280;5493;48.884;8.338;2022-09-03T04:46:06;99803.50;;;19.64;100.00
10881;BME280;5493;48.884;8.338;2022-09-03T04:48:34;99804.03;;;19.67;100.00
10881;BME280;5493;48.884;8.338;2022-09-03T04:51:04;99799.31;;;19.72;100.00
10881;BME280;5493;48.884;8.338;2022-09-03T04:53:32;99797.84;;;19.80;100.00
10881;BME280;5493;48.884;8.338;2022-09-03T04:55:59;99791.69;;;19.69;100.00
10881;BME280;5493;48.884;8.338;2022-09-03T04:58:25;99789.88;;;19.83;100.00
10881;BME280;5493;48.884;8.338;2022-09-03T05:00:52;99791.28;;;19.81;100.00
10881;BME280;5493;48.884;8.338;2022-09-03T05:03:19;99782.25;;;19.80;100.00
10881;BME280;5493;48.884;8.338;2022-09-03T05:05:51;99785.66;;;20.14;100.00
10881;BME280;5493;48.884;8.338;2022-09-03T05:08:19;99782.75;;;20.06;100.00
10881;BME280;5493;48.884;8.338;2022-09-03T05:10:45;99780.88;;;20.01;100.00
10881;BME280;5493;48.884;8.338;2022-09-03T05:13:12;99783.66;;;20.20;100.00
10881;BME280;5493;48.884;8.338;2022-09-03T05:15:39;99786.16;;;20.17;100.00
10881;BME280;5493;48.884;8.338;2022-09-03T05:18:09;99789.63;;;20.22;100.00
10881;BME280;5493;48.884;8.338;2022-09-03T05:20:36;99805.88;;;20.37;100.00
10881;BME280;5493;48.884;8.338;2022-09-03T05:23:03;99798.88;;;20.26;100.00
10881;BME280;5493;48.884;8.338;2022-09-03T05:25:31;99798.81;;;20.36;100.00
10881;BME280;5493;48.884;8.338;2022-09-03T05:27:57;99803.25;;;20.27;100.00
10881;BME280;5493;48.884;8.338;2022-09-03T05:30:24;99802.69;;;20.30;100.00
10881;BME280;5493;48.884;8.338;2022-09-03T05:32:51;99812.25;;;20.51;100.00
10881;BME280;5493;48.884;8.338;2022-09-03T05:35:17;99805.72;;;20.66;100.00
10881;BME280;5493;48.884;8.338;2022-09-03T05:37:44;99809.66;;;20.79;100.00
10881;BME280;5493;48.884;8.338;2022-09-03T05:40:10;99817.13;;;20.73;100.00
10881;BME280;5493;48.884;8.338;2022-09-03T05:42:38;99816.34;;;20.73;100.00
10881;BME280;5493;48.884;8.338;2022-09-03T05:45:06;99808.34;;;20.76;100.00
10881;BME280;5493;48.884;8.338;2022-09-03T05:47:35;99823.84;;;20.81;100.00
10881;BME280;5493;48.884;8.338;2022-09-03T05:50:04;99824.88;;;20.85;100.00
10881;BME280;5493;48.884;8.338;2022-09-03T05:52:31;99831.13;;;20.90;100.00
10881;BME280;5493;48.884;8.338;2022-09-03T05:54:58;99825.75;;;20.99;100.00
10881;BME280;5493;48.884;8.338;2022-09-03T05:57:25;99832.44;;;20.93;100.00
10881;BME280;5493;48.884;8.338;2022-09-03T05:59:52;99831.75;;;21.01;100.00
10881;BME280;5493;48.884;8.338;2022-09-03T06:02:19;99828.84;;;20.79;100.00
10881;BME280;5493;48.884;8.338;2022-09-03T06:04:46;99830.41;;;20.47;100.00
10881;BME280;5493;48.884;8.338;2022-09-03T06:07:12;99821.44;;;20.60;100.00
10881;BME280;5493;48.884;8.338;2022-09-03T06:09:39;99821.94;;;20.44;100.00
10881;BME280;5493;48.884;8.338;2022-09-03T06:12:06;99833.56;;;20.36;100.00
10881;BME280;5493;48.884;8.338;2022-09-03T06:14:32;99836.38;;;20.31;100.00
10881;BME280;5493;48.884;8.338;2022-09-03T06:17:00;99831.44;;;20.33;100.00
10881;BME280;5493;48.884;8.338;2022-09-03T06:19:27;99841.09;;;20.25;100.00
10881;BME280;5493;48.884;8.338;2022-09-03T06:21:53;99842.31;;;20.14;100.00
10881;BME280;5493;48.884;8.338;2022-09-03T06:24:20;99846.22;;;20.08;100.00
10881;BME280;5493;48.884;8.338;2022-09-03T06:26:48;99852.63;;;19.98;100.00
10881;BME280;5493;48.884;8.338;2022-09-03T06:29:16;99862.81;;;20.17;100.00
10881;BME280;5493;48.884;8.338;2022-09-03T06:31:43;99860.00;;;20.45;100.00
10881;BME280;5493;48.884;8.338;2022-09-03T06:34:11;99855.41;;;20.59;100.00
10881;BME280;5493;48.884;8.338;2022-09-03T06:36:37;99860.84;;;20.65;100.00
10881;BME280;5493;48.884;8.338;2022-09-03T06:39:04;99866.97;;;20.75;100.00
10881;BME280;5493;48.884;8.338;2022-09-03T06:41:31;99866.38;;;20.97;100.00
10881;BME280;5493;48.884;8.338;2022-09-03T06:44:01;99870.53;;;20.94;100.00
10881;BME280;5493;48.884;8.338;2022-09-03T06:46:28;99864.97;;;20.81;100.00
10881;BME280;5493;48.884;8.338;2022-09-03T06:48:56;99860.50;;;20.66;100.00
10881;BME280;5493;48.884;8.338;2022-09-03T06:51:25;99862.91;;;20.54;100.00
10881;BME280;5493;48.884;8.338;2022-09-03T06:53:54;99859.13;;;20.50;100.00
10881;BME280;5493;48.884;8.338;2022-09-03T06:56:22;99864.22;;;20.56;100.00
10881;BME280;5493;48.884;8.338;2022-09-03T06:58:51;99868.88;;;20.93;100.00
10881;BME280;5493;48.884;8.338;2022-09-03T07:01:19;99868.00;;;20.79;100.00
10881;BME280;5493;48.884;8.338;2022-09-03T07:03:47;99876.22;;;20.98;100.00
10881;BME280;5493;48.884;8.338;2022-09-03T07:06:15;99875.63;;;21.01;100.00
10881;BME280;5493;48.884;8.338;2022-09-03T07:08:44;99877.41;;;21.10;100.00
10881;BME280;5493;48.884;8.338;2022-09-03T07:11:13;99878.75;;;20.94;100.00
10881;BME280;5493;48.884;8.338;2022-09-03T07:13:41;99866.38;;;20.97;100.00
10881;BME280;5493;48.884;8.338;2022-09-03T07:16:10;99871.69;;;21.07;100.00
10881;BME280;5493;48.884;8.338;2022-09-03T07:18:37;99875.34;;;21.35;100.00
10881;BME280;5493;48.884;8.338;2022-09-03T07:21:06;99882.44;;;21.68;100.00
10881;BME280;5493;48.884;8.338;2022-09-03T07:23:34;99882.03;;;21.61;100.00
10881;BME280;5493;48.884;8.338;2022-09-03T07:26:04;99886.22;;;21.72;100.00
10881;BME280;5493;48.884;8.338;2022-09-03T07:28:34;99879.16;;;21.52;100.00
10881;BME280;5493;48.884;8.338;2022-09-03T07:31:02;99876.34;;;21.71;100.00
10881;BME280;5493;48.884;8.338;2022-09-03T07:33:30;99887.38;;;21.85;100.00
10881;BME280;5493;48.884;8.338;2022-09-03T07:36:01;99892.16;;;21.93;100.00
10881;BME280;5493;48.884;8.338;2022-09-03T07:38:28;99900.53;;;21.55;100.00
10881;BME280;5493;48.884;8.338;2022-09-03T07:40:56;99917.25;;;21.22;100.00
10881;BME280;5493;48.884;8.338;2022-09-03T07:43:26;99915.25;;;20.90;100.00
10881;BME280;5493;48.884;8.338;2022-09-03T07:45:53;99909.72;;;21.46;100.00
10881;BME280;5493;48.884;8.338;2022-09-03T07:48:21;99928.31;;;20.98;100.00
10881;BME280;5493;48.884;8.338;2022-09-03T07:50:47;99929.13;;;20.80;100.00
10881;BME280;5493;48.884;8.338;2022-09-03T07:53:15;99937.31;;;20.61;100.00
10881;BME280;5493;48.884;8.338;2022-09-03T07:55:41;99934.94;;;20.54;100.00
10881;BME280;5493;48.884;8.338;2022-09-03T07:58:08;99942.97;;;20.46;100.00
10881;BME280;5493;48.884;8.338;2022-09-03T08:00:37;99939.63;;;20.73;100.00
10881;BME280;5493;48.884;8.338;2022-09-03T08:03:03;99948.72;;;20.21;100.00
10881;BME280;5493;48.884;8.338;2022-09-03T08:05:33;99950.78;;;20.34;100.00
10881;BME280;5493;48.884;8.338;2022-09-03T08:08:00;99945.84;;;20.97;100.00
10881;BME280;5493;48.884;8.338;2022-09-03T08:10:27;99932.06;;;20.65;100.00
10881;BME280;5493;48.884;8.338;2022-09-03T08:12:55;99942.88;;;20.93;100.00
10881;BME280;5493;48.884;8.338;2022-09-03T08:15:22;99945.44;;;21.59;100.00
10881;BME280;5493;48.884;8.338;2022-09-03T08:17:50;99927.56;;;21.30;100.00
10881;BME280;5493;48.884;8.338;2022-09-03T08:20:16;99923.25;;;21.56;100.00
10881;BME280;5493;48.884;8.338;2022-09-03T08:22:43;99927.19;;;21.36;100.00
10881;BME280;5493;48.884;8.338;2022-09-03T08:25:09;99915.16;;;21.65;100.00
10881;BME280;5493;48.884;8.338;2022-09-03T08:27:36;99924.00;;;21.94;100.00
10881;BME280;5493;48.884;8.338;2022-09-03T08:30:03;99911.50;;;22.01;100.00
10881;BME280;5493;48.884;8.338;2022-09-03T08:32:30;99901.53;;;21.92;100.00
10881;BME280;5493;48.884;8.338;2022-09-03T08:34:58;99897.53;;;22.25;100.00
10881;BME280;5493;48.884;8.338;2022-09-03T08:37:25;99889.78;;;22.68;100.00
10881;BME280;5493;48.884;8.338;2022-09-03T08:39:53;99886.88;;;22.87;100.00
10881;BME280;5493;48.884;8.338;2022-09-03T08:42:38;99892.19;;;23.41;100.00
10881;BME280;5493;48.884;8.338;2022-09-03T08:45:09;99877.41;;;23.37;100.00
10881;BME280;5493;48.884;8.338;2022-09-03T08:47:43;99871.97;;;24.81;100.00
10881;BME280;5493;48.884;8.338;2022-09-03T08:50:17;99877.78;;;25.40;100.00
10881;BME280;5493;48.884;8.338;2022-09-03T08:52:49;99874.25;;;25.05;100.00
10881;BME280;5493;48.884;8.338;2022-09-03T08:55:22;99875.25;;;24.83;100.00
10881;BME280;5493;48.884;8.338;2022-09-03T08:57:56;99871.66;;;25.17;100.00
10881;BME280;5493;48.884;8.338;2022-09-03T09:00:28;99868.72;;;25.22;100.00
10881;BME280;5493;48.884;8.338;2022-09-03T09:03:13;99874.03;;;24.67;100.00
10881;BME280;5493;48.884;8.338;2022-09-03T09:05:50;99875.50;;;24.47;100.00
10881;BME280;5493;48.884;8.338;2022-09-03T09:08:28;99873.69;;;24.34;100.00
10881;BME280;5493;48.884;8.338;2022-09-03T09:11:01;99869.84;;;24.53;100.00
10881;BME280;5493;48.884;8.338;2022-09-03T09:13:37;99867.75;;;24.92;100.00
10881;BME280;5493;48.884;8.338;2022-09-03T09:16:13;99870.53;;;24.84;100.00
10881;BME280;5493;48.884;8.338;2022-09-03T09:18:55;99853.66;;;24.94;100.00
10881;BME280;5493;48.884;8.338;2022-09-03T09:21:29;99861.78;;;24.99;100.00
10881;BME280;5493;48.884;8.338;2022-09-03T09:24:01;99859.59;;;24.53;100.00
10881;BME280;5493;48.884;8.338;2022-09-03T09:26:28;99870.97;;;24.52;100.00
10881;BME280;5493;48.884;8.338;2022-09-03T09:28:58;99869.47;;;24.37;100.00
10881;BME280;5493;48.884;8.338;2022-09-03T09:31:27;99865.53;;;24.21;100.00
10881;BME280;5493;48.884;8.338;2022-09-03T09:34:00;99863.47;;;23.95;100.00
10881;BME280;5493;48.884;8.338;2022-09-03T09:36:30;99867.09;;;24.05;100.00
10881;BME280;5493;48.884;8.338;2022-09-03T09:39:07;99867.44;;;24.12;100.00
10881;BME280;5493;48.884;8.338;2022-09-03T09:41:34;99874.31;;;24.23;100.00
10881;BME280;5493;48.884;8.338;2022-09-03T09:44:01;99873.69;;;24.43;100.00
10881;BME280;5493;48.884;8.338;2022-09-03T09:46:34;99873.44;;;24.70;100.00
10881;BME280;5493;48.884;8.338;2022-09-03T09:49:01;99871.91;;;24.47;100.00
10881;BME280;5493;48.884;8.338;2022-09-03T09:51:30;99866.78;;;24.80;100.00
10881;BME280;5493;48.884;8.338;2022-09-03T09:54:01;99860.81;;;24.95;100.00
10881;BME280;5493;48.884;8.338;2022-09-03T09:56:28;99858.97;;;25.33;100.00
10881;BME280;5493;48.884;8.338;2022-09-03T09:59:02;99856.50;;;25.49;100.00
10881;BME280;5493;48.884;8.338;2022-09-03T10:01:29;99856.44;;;26.13;100.00
10881;BME280;5493;48.884;8.338;2022-09-03T10:03:57;99854.38;;;26.39;100.00
10881;BME280;5493;48.884;8.338;2022-09-03T10:06:25;99860.50;;;26.15;100.00
10881;BME280;5493;48.884;8.338;2022-09-03T10:09:13;99853.34;;;26.94;100.00
10881;BME280;5493;48.884;8.338;2022-09-03T10:11:43;99849.50;;;26.86;100.00
10881;BME280;5493;48.884;8.338;2022-09-03T10:14:16;99853.09;;;27.19;100.00
10881;BME280;5493;48.884;8.338;2022-09-03T10:16:51;99845.88;;;27.06;100.00
10881;BME280;5493;48.884;8.338;2022-09-03T10:19:22;99848.00;;;27.09;100.00
10881;BME280;5493;48.884;8.338;2022-09-03T10:21:54;99844.88;;;27.11;100.00
10881;BME280;5493;48.884;8.338;2022-09-03T10:24:47;99841.56;;;27.17;100.00
10881;BME280;5493;48.884;8.338;2022-09-03T10:27:18;99847.25;;;26.59;100.00
10881;BME280;5493;48.884;8.338;2022-09-03T10:29:46;99847.53;;;26.07;100.00
10881;BME280;5493;48.884;8.338;2022-09-03T10:32:24;99845.78;;;26.32;100.00
10881;BME280;5493;48.884;8.338;2022-09-03T10:35:02;99846.72;;;26.07;100.00
10881;BME280;5493;48.884;8.338;2022-09-03T10:37:37;99847.28;;;26.29;100.00
10881;BME280;5493;48.884;8.338;2022-09-03T10:40:16;99852.84;;;26.50;100.00
10881;BME280;5493;48.884;8.338;2022-09-03T10:42:49;99866.50;;;26.26;100.00
10881;BME280;5493;48.884;8.338;2022-09-03T10:45:31;99861.59;;;25.93;100.00
10881;BME280;5493;48.884;8.338;2022-09-03T10:48:32;99863.72;;;26.17;100.00
10881;BME280;5493;48.884;8.338;2022-09-03T10:51:04;99862.56;;;25.89;100.00
10881;BME280;5493;48.884;8.338;2022-09-03T10:53:46;99862.44;;;25.85;100.00
10881;BME280;5493;48.884;8.338;2022-09-03T10:56:26;99861.22;;;25.95;100.00
10881;BME280;5493;48.884;8.338;2022-09-03T10:59:22;99858.03;;;25.84;100.00
10881;BME280;5493;48.884;8.338;2022-09-03T11:02:02;99856.28;;;26.47;100.00
10881;BME280;5493;48.884;8.338;2022-09-03T11:04:41;99861.81;;;26.68;100.00
10881;BME280;5493;48.884;8.338;2022-09-03T11:07:12;99862.81;;;26.42;100.00
10881;BME280;5493;48.884;8.338;2022-09-03T11:09:42;99862.41;;;26.53;100.00
10881;BME280;5493;48.884;8.338;2022-09-03T11:12:18;99861.16;;;26.12;100.00
10881;BME280;5493;48.884;8.338;2022-09-03T11:14:50;99862.16;;;25.70;100.00
10881;BME280;5493;48.884;8.338;2022-09-03T11:17:23;99868.06;;;26.35;100.00
10881;BME280;5493;48.884;8.338;2022-09-03T11:19:56;99864.72;;;26.21;100.00
10881;BME280;5493;48.884;8.338;2022-09-03T11:22:24;99856.97;;;25.68;100.00
10881;BME280;5493;48.884;8.338;2022-09-03T11:24:57;99858.38;;;26.12;100.00
10881;BME280;5493;48.884;8.338;2022-09-03T11:27:44;99850.44;;;26.69;100.00
10881;BME280;5493;48.884;8.338;2022-09-03T11:30:22;99852.91;;;26.04;100.00
10881;BME280;5493;48.884;8.338;2022-09-03T11:32:52;99854.34;;;26.10;100.00
10881;BME280;5493;48.884;8.338;2022-09-03T11:35:26;99851.66;;;26.30;100.00
10881;BME280;5493;48.884;8.338;2022-09-03T11:37:57;99838.22;;;26.91;100.00
10881;BME280;5493;48.884;8.338;2022-09-03T11:40:31;99847.38;;;27.36;100.00
10881;BME280;5493;48.884;8.338;2022-09-03T11:43:23;99845.38;;;27.25;100.00
10881;BME280;5493;48.884;8.338;2022-09-03T11:46:01;99846.38;;;27.08;100.00
10881;BME280;5493;48.884;8.338;2022-09-03T11:48:36;99833.84;;;27.68;100.00
10881;BME280;5493;48.884;8.338;2022-09-03T11:51:03;99833.47;;;28.14;100.00
10881;BME280;5493;48.884;8.338;2022-09-03T11:53:53;99831.09;;;28.53;100.00
10881;BME280;5493;48.884;8.338;2022-09-03T11:56:20;99826.53;;;28.08;100.00
10881;BME280;5493;48.884;8.338;2022-09-03T11:58:58;99829.16;;;27.80;100.00
10881;BME280;5493;48.884;8.338;2022-09-03T12:01:26;99833.41;;;27.66;100.00
10881;BME280;5493;48.884;8.338;2022-09-03T12:03:58;99826.63;;;27.30;100.00
10881;BME280;5493;48.884;8.338;2022-09-03T12:07:03;99833.63;;;27.28;100.00
10881;BME280;5493;48.884;8.338;2022-09-03T12:12:49;99838.06;;;26.67;100.00
10881;BME280;5493;48.884;8.338;2022-09-03T12:15:33;99835.84;;;27.02;100.00
10881;BME280;5493;48.884;8.338;2022-09-03T12:18:03;99838.00;;;26.75;100.00
10881;BME280;5493;48.884;8.338;2022-09-03T12:20:46;99840.44;;;26.77;100.00
10881;BME280;5493;48.884;8.338;2022-09-03T12:23:26;99833.03;;;26.89;100.00
10881;BME280;5493;48.884;8.338;2022-09-03T12:25:53;99838.78;;;27.17;100.00
10881;BME280;5493;48.884;8.338;2022-09-03T12:28:21;99838.91;;;26.38;100.00
10881;BME280;5493;48.884;8.338;2022-09-03T12:30:50;99836.81;;;26.35;100.00
10881;BME280;5493;48.884;8.338;2022-09-03T12:33:19;99838.28;;;26.03;100.00
10881;BME280;5493;48.884;8.338;2022-09-03T12:35:55;99839.69;;;26.18;100.00
10881;BME280;5493;48.884;8.338;2022-09-03T12:38:23;99833.66;;;26.45;100.00
10881;BME280;5493;48.884;8.338;2022-09-03T12:40:50;99846.47;;;26.29;100.00
10881;BME280;5493;48.884;8.338;2022-09-03T12:43:17;99846.69;;;25.77;100.00
10881;BME280;5493;48.884;8.338;2022-09-03T12:45:46;99849.28;;;25.82;100.00
10881;BME280;5493;48.884;8.338;2022-09-03T12:48:15;99850.88;;;25.83;100.00
10881;BME280;5493;48.884;8.338;2022-09-03T12:50:42;99849.91;;;25.79;100.00
10881;BME280;5493;48.884;8.338;2022-09-03T12:53:11;99860.75;;;25.29;100.00
10881;BME280;5493;48.884;8.338;2022-09-03T12:55:42;99857.06;;;25.17;100.00
10881;BME280;5493;48.884;8.338;2022-09-03T12:58:12;99850.81;;;25.45;100.00
10881;BME280;5493;48.884;8.338;2022-09-03T13:00:45;99859.09;;;25.45;100.00
10881;BME280;5493;48.884;8.338;2022-09-03T13:03:17;99859.50;;;25.01;100.00
10881;BME280;5493;48.884;8.338;2022-09-03T13:05:50;99866.78;;;24.80;100.00
10881;BME280;5493;48.884;8.338;2022-09-03T13:08:20;99872.50;;;24.92;100.00
10881;BME280;5493;48.884;8.338;2022-09-03T13:10:50;99877.66;;;24.93;100.00
10881;BME280;5493;48.884;8.338;2022-09-03T13:13:22;99891.75;;;24.66;100.00
10881;BME280;5493;48.884;8.338;2022-09-03T13:19:05;99882.69;;;24.74;100.00
10881;BME280;5493;48.884;8.338;2022-09-03T13:21:40;99884.28;;;24.67;100.00
10881;BME280;5493;48.884;8.338;2022-09-03T13:24:31;99877.44;;;24.47;100.00
10881;BME280;5493;48.884;8.338;2022-09-03T13:27:04;99876.81;;;24.67;100.00